»·PEaware :: SWA860 KPHX-KLAX

SWA860 :: KPHX-KLAX

FLIGHT INFORMATION

Flight Status: Arrived
Operator:
Southwest Airlines
More flights by this operator :: More flights under this callsign
Pilot: Maximilliano F. (23467)
Aircraft: BOEING 737-800
(B738)
More flights by this aircraft type
Origin: KPHX Phoenix Sky Harbor Intl
United States
Destination: KLAX Los Angeles Intl
United States
More flights between these airports :: More routes between these airports
Route: KEENS2 MESSI ESTWD HLYWD1
File this flight plan on PilotEdge
Remarks: RMK / SIMBRIEF
Altitude:
(Current/Filed)
36,000ft
Speed:
(Current/Filed)
466kts
Departed: 07-Oct-19 03:30 PM
Arrived: 07-Oct-19 04:33 PM
Distance/Time
Traveled:
321nm/1:03
Distance/Time
To Go:
Arrived

Flight Plot

Page will automatically refresh every two minutes.

Flight plan parsing failed; only flown route is shown


Map Options




Map Legend


Flown Route
Filed Route
Departure Airport
Arrival Airport
Navaid (VOR, NDB)
Fix

Horizontal Profiles

Position Reports

Time Latitude Longitude Heading Altitude Ground
Speed
07-Oct-19 15:03 33.434400 -111.993782 270 1138ft 0kts
07-Oct-19 15:04 33.434400 -111.993782 270 1138ft 0kts
07-Oct-19 15:05 33.434400 -111.993782 270 1138ft 0kts
07-Oct-19 15:06 33.434400 -111.993782 270 1138ft 0kts
07-Oct-19 15:07 33.434400 -111.993782 270 1138ft 0kts
07-Oct-19 15:08 33.434400 -111.993782 270 1139ft 0kts
07-Oct-19 15:09 33.434400 -111.993782 270 1139ft 0kts
07-Oct-19 15:10 33.434400 -111.993782 270 1139ft 0kts
07-Oct-19 15:11 33.434400 -111.993782 270 1139ft 0kts
07-Oct-19 15:12 33.434400 -111.993782 270 1139ft 0kts
07-Oct-19 15:13 33.434400 -111.993782 270 1139ft 0kts
07-Oct-19 15:14 33.434400 -111.993782 270 1139ft 0kts
07-Oct-19 15:15 33.434399 -111.993737 271 1139ft 2kts
07-Oct-19 15:16 33.434390 -111.993020 270 1139ft 1kts
07-Oct-19 15:17 33.434390 -111.993009 270 1139ft 0kts
07-Oct-19 15:18 33.434388 -111.993022 263 1139ft 0kts
07-Oct-19 15:19 33.433742 -111.993085 182 1139ft 3kts
07-Oct-19 15:20 33.433398 -111.993095 180 1139ft 2kts
07-Oct-19 15:21 33.432817 -111.995811 270 1139ft 19kts
07-Oct-19 15:22 33.432828 -112.003089 270 1139ft 22kts
07-Oct-19 15:23 33.432862 -112.010175 268 1139ft 20kts
07-Oct-19 15:24 33.432878 -112.016517 270 1139ft 18kts
07-Oct-19 15:25 33.432874 -112.022450 270 1139ft 17kts
07-Oct-19 15:26 33.432764 -112.026789 228 1139ft 4kts
07-Oct-19 15:27 33.432138 -112.026974 181 1139ft 0kts
07-Oct-19 15:28 33.431379 -112.026972 178 1139ft 9kts
07-Oct-19 15:29 33.431051 -111.999945 90 1230ft 193kts
07-Oct-19 15:30 33.433070 -111.929462 87 3929ft 239kts
07-Oct-19 15:31 33.413927 -111.856472 140 7574ft 248kts
07-Oct-19 15:32 33.354728 -111.872744 247 10775ft 266kts
07-Oct-19 15:33 33.358967 -111.962933 275 13380ft 307kts
07-Oct-19 15:34 33.372821 -112.074520 278 15985ft 353kts
07-Oct-19 15:35 33.390453 -112.192161 278 19448ft 363kts
07-Oct-19 15:36 33.408287 -112.312885 278 22778ft 371kts
07-Oct-19 15:37 33.426372 -112.436173 278 25716ft 382kts
07-Oct-19 15:38 33.444855 -112.563027 279 28353ft 394kts
07-Oct-19 15:39 33.451520 -112.694408 271 30862ft 402kts
07-Oct-19 15:40 33.462881 -112.822998 288 34262ft 377kts
07-Oct-19 15:41 33.501199 -112.938235 293 35918ft 378kts
07-Oct-19 15:42 33.541674 -113.053793 293 35949ft 374kts
07-Oct-19 15:43 33.581750 -113.168800 292 35961ft 374kts
07-Oct-19 15:44 33.621632 -113.283669 293 35967ft 373kts
07-Oct-19 15:45 33.661277 -113.398257 292 35966ft 371kts
07-Oct-19 15:46 33.700775 -113.512818 292 35963ft 370kts
07-Oct-19 15:47 33.740036 -113.627099 292 35961ft 370kts
07-Oct-19 15:48 33.778888 -113.740807 292 35974ft 370kts
07-Oct-19 15:49 33.817615 -113.855136 291 35972ft 368kts
07-Oct-19 15:50 33.856293 -113.969107 291 35970ft 369kts
07-Oct-19 15:51 33.895066 -114.083479 291 35953ft 369kts
07-Oct-19 15:52 33.920450 -114.202705 283 35924ft 370kts
07-Oct-19 15:53 33.940996 -114.324167 283 35910ft 370kts
07-Oct-19 15:54 33.961519 -114.445684 283 35907ft 370kts
07-Oct-19 15:55 33.981934 -114.567325 283 35905ft 371kts
07-Oct-19 15:56 34.002063 -114.688216 282 35917ft 372kts
07-Oct-19 15:57 34.022254 -114.810307 282 35916ft 372kts
07-Oct-19 15:58 34.042367 -114.932419 282 35915ft 372kts
07-Oct-19 15:59 34.062253 -115.054806 282 35922ft 372kts
07-Oct-19 16:00 34.081961 -115.176809 282 35935ft 371kts
07-Oct-19 16:01 34.101701 -115.298657 282 35949ft 370kts
07-Oct-19 16:02 34.121292 -115.420448 282 35958ft 369kts
07-Oct-19 16:03 34.140679 -115.541802 282 35966ft 369kts
07-Oct-19 16:04 34.159674 -115.662141 279 35981ft 369kts
07-Oct-19 16:05 34.154675 -115.786316 267 35985ft 373kts
07-Oct-19 16:06 34.142570 -115.910450 267 35978ft 373kts
07-Oct-19 16:07 34.130442 -116.034400 267 35975ft 372kts
07-Oct-19 16:08 34.118272 -116.158340 267 35714ft 377kts
07-Oct-19 16:09 34.106026 -116.281730 266 33030ft 370kts
07-Oct-19 16:10 34.092485 -116.409516 265 31960ft 392kts
07-Oct-19 16:11 34.078514 -116.539698 265 31324ft 382kts
07-Oct-19 16:12 34.066282 -116.662356 264 29646ft 366kts
07-Oct-19 16:14 34.054317 -116.791554 263 26226ft 395kts
07-Oct-19 16:15 34.041477 -116.920786 259 23232ft 380kts
07-Oct-19 16:16 34.025133 -117.043306 260 20579ft 364kts
07-Oct-19 16:17 34.011140 -117.162344 260 18036ft 350kts
07-Oct-19 16:18 33.997496 -117.276411 260 15729ft 335kts
07-Oct-19 16:19 33.984501 -117.386199 261 13609ft 339kts
07-Oct-19 16:20 33.977840 -117.498217 278 12021ft 328kts
07-Oct-19 16:21 34.000164 -117.606052 285 11183ft 333kts
07-Oct-19 16:22 34.019416 -117.711196 269 10068ft 306kts
07-Oct-19 16:23 34.011362 -117.808838 262 8726ft 281kts
07-Oct-19 16:24 34.002389 -117.900276 262 7356ft 263kts
07-Oct-19 16:25 33.994288 -117.982857 262 6121ft 247kts
07-Oct-19 16:26 33.986823 -118.057891 262 5000ft 233kts
07-Oct-19 16:27 33.980093 -118.125820 263 4030ft 217kts
07-Oct-19 16:28 33.974169 -118.188788 262 3722ft 219kts
07-Oct-19 16:29 33.968556 -118.241421 262 2844ft 211kts
07-Oct-19 16:30 33.965631 -118.290110 264 1988ft 170kts
07-Oct-19 16:31 33.960056 -118.339737 262 1166ft 149kts
07-Oct-19 16:32 33.953242 -118.390982 261 315ft 148kts
07-Oct-19 16:33 33.950206 -118.417743 243 125ft 26kts
07-Oct-19 16:34 33.946870 -118.422737 135 120ft 6kts
07-Oct-19 16:35 33.947123 -118.419509 82 122ft 9kts
07-Oct-19 16:36 33.947642 -118.414442 79 125ft 16kts
07-Oct-19 16:36 33.948200 -118.410284 82 127ft 14kts
07-Oct-19 16:38 33.948932 -118.403123 83 122ft 14kts
07-Oct-19 16:38 33.948284 -118.401670 259 121ft 7kts
07-Oct-19 16:39 33.947275 -118.402550 161 123ft 0kts
07-Oct-19 16:41 33.947242 -118.401890 84 122ft 0kts
07-Oct-19 16:42 33.947242 -118.401890 84 122ft 0kts

Navigation Log

Ident Type
Flight plan parsing failed, navigation log unavailable